createdAt,value
2017-09-05T00:00:28.581Z,2.97
2017-09-05T00:03:02.147Z,3.20
2017-09-05T00:05:35.717Z,2.87
2017-09-05T00:11:30.893Z,3.30
2017-09-05T00:17:08.949Z,3.43
2017-09-05T00:19:47.191Z,3.30
2017-09-05T00:22:21.205Z,3.67
2017-09-05T00:24:54.656Z,3.07
2017-09-05T00:27:29.065Z,3.20
2017-09-05T00:30:02.776Z,2.87
2017-09-05T00:32:36.401Z,3.50
2017-09-05T00:35:10.305Z,3.20
2017-09-05T00:37:43.910Z,3.60
2017-09-05T00:40:17.514Z,3.10
2017-09-05T00:42:51.005Z,3.60
2017-09-05T00:45:24.646Z,3.60
2017-09-05T00:47:58.313Z,3.63
2017-09-05T00:50:32.677Z,3.50
2017-09-05T00:53:06.329Z,2.83
2017-09-05T00:55:39.826Z,3.27
2017-09-05T00:58:13.395Z,3.63
2017-09-05T01:00:46.933Z,3.57
2017-09-05T01:03:20.420Z,3.27
2017-09-05T01:05:54.850Z,3.70
2017-09-05T01:08:28.567Z,3.67
2017-09-05T01:11:02.380Z,3.93
2017-09-05T01:13:35.931Z,3.30
2017-09-05T01:16:09.437Z,3.87
2017-09-05T01:18:43.054Z,3.07
2017-09-05T01:21:16.761Z,3.63
2017-09-05T01:23:50.485Z,3.30
2017-09-05T01:26:24.065Z,3.97
2017-09-05T01:28:57.702Z,3.53
2017-09-05T01:31:31.206Z,3.30
2017-09-05T01:34:05.681Z,3.30
2017-09-05T01:36:39.493Z,2.97
2017-09-05T01:39:13.094Z,2.90
2017-09-05T01:41:47.319Z,3.03
2017-09-05T01:44:21.009Z,2.93
2017-09-05T01:46:54.713Z,3.20
2017-09-05T01:49:28.516Z,3.53
2017-09-05T01:52:02.122Z,3.00
2017-09-05T01:54:35.934Z,3.30
2017-09-05T01:57:09.854Z,3.03
2017-09-05T01:59:43.438Z,3.20
2017-09-05T02:02:17.029Z,3.10
2017-09-05T02:04:50.637Z,3.00
2017-09-05T02:07:24.182Z,3.23
2017-09-05T02:09:57.833Z,3.20
2017-09-05T02:12:31.434Z,3.27
2017-09-05T02:15:05.558Z,3.10
2017-09-05T02:17:39.149Z,2.90
2017-09-05T02:20:12.741Z,2.80
2017-09-05T02:22:46.401Z,3.50
2017-09-05T02:25:20.158Z,3.03
2017-09-05T02:27:53.750Z,3.13
2017-09-05T02:30:27.358Z,2.63
2017-09-05T02:33:00.965Z,3.20
2017-09-05T02:35:34.782Z,2.80
2017-09-05T02:38:08.332Z,2.63
2017-09-05T02:40:41.813Z,2.50
2017-09-05T02:43:15.354Z,2.43
2017-09-05T02:45:48.917Z,2.53
2017-09-05T02:48:22.666Z,2.40
2017-09-05T02:50:56.161Z,2.50
2017-09-05T02:53:29.661Z,2.70
2017-09-05T02:56:03.893Z,2.70
2017-09-05T02:58:37.581Z,2.43
2017-09-05T03:01:11.080Z,2.40
2017-09-05T03:03:44.794Z,2.63
2017-09-05T03:06:18.385Z,2.30
2017-09-05T03:08:51.878Z,2.50
2017-09-05T03:11:25.430Z,2.43
2017-09-05T03:13:59.181Z,2.33
2017-09-05T03:16:33.710Z,3.63
2017-09-05T03:19:07.435Z,2.53
2017-09-05T03:21:41.122Z,2.63
2017-09-05T03:24:14.557Z,2.30
2017-09-05T03:26:48.321Z,2.43
2017-09-05T03:29:22.102Z,2.90
2017-09-05T03:31:55.725Z,2.60
2017-09-05T03:34:29.421Z,2.50
2017-09-05T03:37:02.922Z,2.30
2017-09-05T03:39:36.625Z,2.30
2017-09-05T03:42:10.751Z,2.47
2017-09-05T03:44:44.556Z,3.00
2017-09-05T03:47:18.137Z,2.40
2017-09-05T03:49:52.673Z,2.67
2017-09-05T03:52:26.265Z,2.30
2017-09-05T03:54:59.869Z,2.50
2017-09-05T03:57:33.470Z,2.37
2017-09-05T04:00:07.174Z,2.90
2017-09-05T04:02:40.768Z,2.97
2017-09-05T04:05:14.373Z,3.00
2017-09-05T04:07:47.986Z,3.50
2017-09-05T04:10:22.493Z,3.73
2017-09-05T04:12:56.779Z,3.57
2017-09-05T04:15:30.518Z,3.93
2017-09-05T04:18:04.126Z,4.17
2017-09-05T04:20:37.793Z,4.50
2017-09-05T04:23:12.042Z,3.20
2017-09-05T04:25:45.842Z,4.43
2017-09-05T04:28:19.437Z,4.30
2017-09-05T04:30:53.246Z,4.30
2017-09-05T04:33:27.680Z,4.60
2017-09-05T04:36:01.882Z,4.53
2017-09-05T04:38:35.554Z,4.33
2017-09-05T04:41:09.122Z,4.67
2017-09-05T04:43:42.893Z,3.70
2017-09-05T04:46:16.592Z,4.20
2017-09-05T04:48:50.189Z,5.07
2017-09-05T04:51:23.797Z,4.43
2017-09-05T04:53:57.494Z,5.17
2017-09-05T04:56:32.027Z,4.90
2017-09-05T04:59:05.621Z,4.30
2017-09-05T05:01:39.222Z,4.40
2017-09-05T05:04:12.922Z,4.67
2017-09-05T05:06:46.434Z,4.63
2017-09-05T05:09:20.216Z,4.30
2017-09-05T05:11:53.844Z,5.10
2017-09-05T05:14:27.432Z,4.10
2017-09-05T05:17:00.923Z,5.37
2017-09-05T05:19:34.525Z,3.90
2017-09-05T05:22:08.129Z,4.10
2017-09-05T05:24:41.686Z,5.20
2017-09-05T05:27:15.390Z,4.23
2017-09-05T05:29:49.034Z,4.73
2017-09-05T05:32:22.634Z,4.10
2017-09-05T05:34:56.902Z,4.67
2017-09-05T05:37:30.450Z,4.67
2017-09-05T05:40:04.266Z,5.30
2017-09-05T05:42:37.955Z,5.50
2017-09-05T05:45:11.674Z,5.20
2017-09-05T05:47:45.233Z,4.83
2017-09-05T05:50:18.830Z,4.80
2017-09-05T05:52:52.245Z,6.10
2017-09-05T05:55:25.842Z,5.57
2017-09-05T05:57:59.456Z,5.60
2017-09-05T06:00:33.073Z,6.87
2017-09-05T06:03:06.668Z,6.77
2017-09-05T06:05:40.361Z,7.60
2017-09-05T06:08:13.964Z,6.40
2017-09-05T06:10:48.395Z,6.73
2017-09-05T06:13:22.121Z,5.60
2017-09-05T06:15:55.706Z,7.47
2017-09-05T06:18:29.410Z,6.27
2017-09-05T06:21:03.091Z,6.43
2017-09-05T06:23:36.895Z,6.67
2017-09-05T06:26:10.505Z,5.30
2017-09-05T06:28:44.221Z,6.00
2017-09-05T06:31:17.875Z,4.97
2017-09-05T06:33:51.617Z,6.47
2017-09-05T06:36:25.209Z,5.37
2017-09-05T06:38:58.915Z,6.33
2017-09-05T06:41:32.414Z,6.27
2017-09-05T06:44:06.014Z,7.27
2017-09-05T06:46:39.527Z,6.50
2017-09-05T06:49:13.222Z,6.80
2017-09-05T06:51:47.023Z,6.30
2017-09-05T06:54:20.617Z,5.53
2017-09-05T06:56:54.217Z,6.20
2017-09-05T06:59:27.822Z,5.63
2017-09-05T07:02:01.321Z,5.80
2017-09-05T07:04:34.835Z,5.80
2017-09-05T07:07:08.635Z,5.70
2017-09-05T07:09:42.710Z,5.10
2017-09-05T07:12:16.340Z,5.13
2017-09-05T07:14:49.854Z,5.10
2017-09-05T07:17:23.546Z,5.50
2017-09-05T07:19:57.037Z,5.63
2017-09-05T07:22:30.612Z,5.50
2017-09-05T07:25:04.242Z,5.47
2017-09-05T07:27:37.856Z,5.40
2017-09-05T07:30:11.442Z,4.77
2017-09-05T07:32:45.054Z,5.17
2017-09-05T07:35:18.783Z,4.70
2017-09-05T07:37:53.153Z,5.37
2017-09-05T07:40:26.661Z,5.60
2017-09-05T07:43:00.275Z,6.03
2017-09-05T07:45:33.961Z,5.00
2017-09-05T07:48:07.548Z,5.67
2017-09-05T07:50:41.136Z,5.63
2017-09-05T07:53:14.666Z,5.30
2017-09-05T07:55:48.164Z,5.10
2017-09-05T07:58:21.742Z,5.77
2017-09-05T08:00:57.717Z,6.00
2017-09-05T08:03:35.936Z,5.50
2017-09-05T08:06:09.533Z,4.70
2017-09-05T08:08:43.130Z,4.90
2017-09-05T08:11:16.640Z,4.93
2017-09-05T08:13:50.125Z,5.40
2017-09-05T08:16:24.037Z,5.37
2017-09-05T08:18:57.642Z,4.80
2017-09-05T08:21:31.140Z,4.30
2017-09-05T08:24:04.698Z,4.80
2017-09-05T08:26:39.058Z,4.67
2017-09-05T08:29:12.758Z,3.90
2017-09-05T08:31:46.353Z,5.50
2017-09-05T08:34:19.871Z,6.03
2017-09-05T08:36:53.557Z,6.67
2017-09-05T08:39:27.103Z,4.83
2017-09-05T08:42:00.855Z,6.20
2017-09-05T08:44:34.470Z,5.80
2017-09-05T08:47:08.949Z,6.40
2017-09-05T08:49:42.893Z,6.10
2017-09-05T08:52:16.701Z,5.43
2017-09-05T08:54:50.357Z,5.40
2017-09-05T08:57:23.897Z,6.17
2017-09-05T08:59:57.708Z,5.13
2017-09-05T09:02:31.424Z,5.27
2017-09-05T09:05:05.321Z,5.40
2017-09-05T09:07:39.027Z,5.70
2017-09-05T09:10:12.835Z,6.30
2017-09-05T09:12:46.322Z,5.90
2017-09-05T09:15:20.038Z,6.10
2017-09-05T09:17:54.459Z,7.07
2017-09-05T09:20:28.232Z,6.37
2017-09-05T09:23:01.949Z,5.20
2017-09-05T09:25:35.529Z,5.77
2017-09-05T09:28:09.054Z,6.20
2017-09-05T09:30:42.564Z,5.70
2017-09-05T09:33:17.071Z,5.60
2017-09-05T09:35:50.878Z,5.67
2017-09-05T09:38:24.481Z,4.90
2017-09-05T09:40:58.077Z,5.23
2017-09-05T09:43:31.672Z,5.37
2017-09-05T09:46:05.859Z,5.00
2017-09-05T09:48:40.414Z,5.03
2017-09-05T09:51:14.013Z,4.70
2017-09-05T09:53:47.621Z,5.10
2017-09-05T09:56:21.178Z,4.97
2017-09-05T09:58:54.790Z,5.27
2017-09-05T10:01:28.529Z,5.00
2017-09-05T10:04:02.067Z,4.50
2017-09-05T10:06:35.847Z,4.17
2017-09-05T10:09:09.529Z,3.63
2017-09-05T10:11:43.131Z,3.90
2017-09-05T10:14:16.741Z,4.10
2017-09-05T10:16:50.190Z,4.83
2017-09-05T10:19:23.929Z,4.40
2017-09-05T10:21:57.505Z,4.40
2017-09-05T10:24:31.037Z,4.27
2017-09-05T10:27:05.558Z,3.87
2017-09-05T10:29:39.786Z,4.70
2017-09-05T10:32:13.470Z,4.10
2017-09-05T10:34:46.978Z,5.47
2017-09-05T10:37:20.734Z,5.70
2017-09-05T10:39:54.384Z,4.00
2017-09-05T10:42:27.965Z,4.53
2017-09-05T10:45:01.591Z,4.50
2017-09-05T10:47:35.293Z,3.80
2017-09-05T10:50:08.884Z,3.80
2017-09-05T10:52:42.557Z,4.43
2017-09-05T10:55:16.199Z,4.00
2017-09-05T10:57:49.787Z,4.10
2017-09-05T11:00:23.702Z,4.23
2017-09-05T11:02:57.316Z,4.03
2017-09-05T11:05:30.768Z,3.60
2017-09-05T11:08:04.521Z,3.80
2017-09-05T11:10:38.202Z,3.80
2017-09-05T11:13:11.802Z,3.80
2017-09-05T11:15:45.402Z,4.40
2017-09-05T11:18:19.112Z,4.33
2017-09-05T11:20:52.714Z,3.30
2017-09-05T11:23:27.239Z,4.17
2017-09-05T11:26:00.967Z,3.73
2017-09-05T11:28:35.042Z,4.60
2017-09-05T11:31:08.858Z,3.80
2017-09-05T11:33:42.563Z,3.60
2017-09-05T11:36:16.254Z,3.90
2017-09-05T11:38:50.494Z,3.67
2017-09-05T11:41:24.173Z,3.40
2017-09-05T11:43:57.873Z,3.30
2017-09-05T11:46:31.474Z,3.83
2017-09-05T11:49:05.053Z,4.83
2017-09-05T11:51:38.592Z,3.60
2017-09-05T11:54:12.387Z,3.80
2017-09-05T11:56:46.090Z,3.47
2017-09-05T11:59:19.804Z,4.10
2017-09-05T12:01:54.181Z,3.47
2017-09-05T12:04:27.806Z,4.60
2017-09-05T12:07:01.611Z,4.30
2017-09-05T12:09:35.308Z,3.80
2017-09-05T12:12:08.870Z,3.73
2017-09-05T12:14:42.518Z,3.77
2017-09-05T12:17:16.006Z,3.80
2017-09-05T12:19:49.613Z,3.33
2017-09-05T12:22:23.218Z,3.70
2017-09-05T12:24:56.814Z,3.40
2017-09-05T12:27:30.418Z,3.30
2017-09-05T12:30:04.002Z,3.20
2017-09-05T12:32:37.626Z,4.47
2017-09-05T12:35:11.909Z,3.63
2017-09-05T12:37:45.638Z,3.97
2017-09-05T12:40:19.297Z,3.53
2017-09-05T12:42:53.054Z,3.50
2017-09-05T12:45:26.859Z,3.70
2017-09-05T12:48:01.288Z,4.10
2017-09-05T12:50:34.875Z,3.43
2017-09-05T12:53:08.470Z,3.00
2017-09-05T12:55:42.185Z,3.60
2017-09-05T12:58:15.761Z,3.90
2017-09-05T13:00:49.277Z,3.37
2017-09-05T13:03:22.879Z,3.63
2017-09-05T13:05:56.689Z,3.33
2017-09-05T13:08:30.322Z,2.30
2017-09-05T13:11:04.816Z,2.73
2017-09-05T13:13:38.277Z,2.63
2017-09-05T13:16:12.530Z,2.63
2017-09-05T13:18:46.225Z,2.77
2017-09-05T13:21:19.930Z,2.97
2017-09-05T13:23:53.521Z,2.70
2017-09-05T13:26:27.338Z,3.30
2017-09-05T13:29:01.406Z,3.40
2017-09-05T13:31:35.079Z,3.03
2017-09-05T13:34:08.642Z,2.70
2017-09-05T13:36:43.046Z,2.60
2017-09-05T13:39:16.978Z,2.70
2017-09-05T13:41:50.798Z,2.50
2017-09-05T13:44:24.373Z,2.90
2017-09-05T13:46:58.102Z,2.67
2017-09-05T13:49:31.786Z,2.30
2017-09-05T13:52:05.390Z,2.60
2017-09-05T13:54:39.085Z,3.03
2017-09-05T13:57:12.686Z,2.43
2017-09-05T13:59:46.186Z,2.40
2017-09-05T14:02:19.986Z,2.20
2017-09-05T14:04:53.494Z,2.37
2017-09-05T14:07:27.314Z,2.43
2017-09-05T14:10:00.993Z,2.70
2017-09-05T14:12:34.513Z,2.50
2017-09-05T14:15:08.198Z,2.73
2017-09-05T14:17:42.006Z,2.23
2017-09-05T14:20:15.577Z,2.43
2017-09-05T14:22:49.166Z,2.63
2017-09-05T14:25:23.598Z,2.23
2017-09-05T14:27:57.243Z,2.43
2017-09-05T14:30:31.232Z,2.33
2017-09-05T14:33:04.938Z,2.37
2017-09-05T14:35:38.538Z,2.27
2017-09-05T14:38:12.153Z,2.60
2017-09-05T14:40:46.253Z,2.60
2017-09-05T14:43:19.754Z,2.40
2017-09-05T14:45:53.467Z,2.53
2017-09-05T14:48:27.173Z,2.70
2017-09-05T14:51:00.874Z,2.20
2017-09-05T14:53:34.462Z,2.67
2017-09-05T14:56:07.914Z,2.37
2017-09-05T14:58:41.663Z,2.40
2017-09-05T15:01:15.480Z,2.53
2017-09-05T15:03:49.187Z,2.40
2017-09-05T15:06:22.610Z,2.80
2017-09-05T15:08:56.275Z,2.83
2017-09-05T15:11:29.879Z,2.73
2017-09-05T15:14:03.574Z,2.10
2017-09-05T15:16:37.126Z,2.40
2017-09-05T15:19:10.777Z,2.70
2017-09-05T15:21:44.253Z,3.07
2017-09-05T15:24:17.953Z,2.40
2017-09-05T15:26:51.543Z,3.00
2017-09-05T15:29:25.298Z,3.37
2017-09-05T15:31:58.988Z,2.80
2017-09-05T15:34:32.551Z,2.53
2017-09-05T15:37:06.077Z,2.80
2017-09-05T15:39:39.606Z,2.60
2017-09-05T15:42:13.043Z,2.73
2017-09-05T15:44:46.702Z,2.70
2017-09-05T15:47:20.594Z,3.60
2017-09-05T15:49:54.212Z,2.73
2017-09-05T15:52:27.677Z,2.83
2017-09-05T15:55:01.523Z,2.90
2017-09-05T15:57:36.641Z,3.97
2017-09-05T16:00:10.237Z,2.77
2017-09-05T16:02:43.846Z,2.93
2017-09-05T16:05:17.413Z,3.10
2017-09-05T16:07:51.034Z,2.93
2017-09-05T16:10:24.633Z,2.80
2017-09-05T16:12:58.225Z,3.20
2017-09-05T16:15:31.833Z,2.70
2017-09-05T16:18:05.334Z,2.50
2017-09-05T16:20:39.037Z,3.23
2017-09-05T16:23:12.620Z,3.50
2017-09-05T16:25:46.198Z,2.70
2017-09-05T16:28:19.834Z,3.00
2017-09-05T16:30:53.397Z,3.03
2017-09-05T16:33:26.943Z,3.10
2017-09-05T16:36:00.504Z,2.63
2017-09-05T16:38:34.017Z,1.73
2017-09-05T16:41:07.573Z,3.37
2017-09-05T16:43:41.142Z,2.73
2017-09-05T16:46:14.751Z,2.73
2017-09-05T16:48:48.196Z,2.50
2017-09-05T16:51:21.930Z,2.87
2017-09-05T16:53:55.637Z,2.90
2017-09-05T16:56:29.241Z,3.00
2017-09-05T16:59:02.702Z,3.50
2017-09-05T17:01:36.298Z,2.93
2017-09-05T17:04:09.841Z,3.30
2017-09-05T17:06:43.397Z,2.40
2017-09-05T17:09:16.942Z,3.23
2017-09-05T17:11:50.434Z,3.00
2017-09-05T17:14:23.930Z,3.83
2017-09-05T17:16:57.514Z,3.00
2017-09-05T17:19:31.137Z,3.07
2017-09-05T17:22:04.846Z,3.53
2017-09-05T17:24:38.637Z,3.33
2017-09-05T17:27:12.202Z,3.30
2017-09-05T17:29:45.755Z,3.37
2017-09-05T17:32:19.453Z,3.20
2017-09-05T17:34:53.046Z,3.70
2017-09-05T17:37:26.646Z,3.53
2017-09-05T17:40:00.149Z,3.27
2017-09-05T17:42:33.749Z,3.57
2017-09-05T17:45:07.341Z,3.30
2017-09-05T17:47:40.914Z,3.37
2017-09-05T17:50:14.450Z,3.10
2017-09-05T17:52:47.954Z,2.70
2017-09-05T17:55:21.642Z,3.63
2017-09-05T17:57:55.246Z,3.40
2017-09-05T18:00:28.840Z,3.00
2017-09-05T18:03:02.350Z,2.63
2017-09-05T18:05:35.946Z,4.10
2017-09-05T18:08:10.050Z,3.27
2017-09-05T18:10:43.766Z,4.73
2017-09-05T18:13:17.466Z,4.10
2017-09-05T18:15:51.789Z,4.50
2017-09-05T18:18:25.588Z,4.37
2017-09-05T18:20:59.913Z,3.70
2017-09-05T18:23:33.508Z,3.90
2017-09-05T18:26:07.218Z,3.67
2017-09-05T18:28:40.913Z,3.93
2017-09-05T18:31:14.525Z,5.50
2017-09-05T18:33:48.326Z,6.40
2017-09-05T18:36:22.022Z,5.70
2017-09-05T18:38:55.611Z,5.87
2017-09-05T18:41:29.226Z,5.20
2017-09-05T18:44:03.229Z,4.80
2017-09-05T18:46:36.842Z,4.10
2017-09-05T18:49:10.290Z,4.10
2017-09-05T18:51:43.838Z,4.23
2017-09-05T18:54:17.466Z,3.93
2017-09-05T18:56:50.987Z,4.83
2017-09-05T18:59:24.607Z,4.97
2017-09-05T19:01:58.230Z,4.60
2017-09-05T19:04:31.834Z,4.90
2017-09-05T19:07:05.430Z,4.97
2017-09-05T19:09:38.925Z,4.43
2017-09-05T19:12:12.490Z,4.30
2017-09-05T19:14:46.342Z,3.20
2017-09-05T19:17:20.744Z,3.80
2017-09-05T19:20:00.602Z,3.47
2017-09-05T19:22:34.074Z,3.47
2017-09-05T19:25:07.698Z,3.50
2017-09-05T19:27:41.301Z,3.30
2017-09-05T19:30:14.873Z,3.53
2017-09-05T19:32:48.357Z,3.57
2017-09-05T19:35:22.062Z,3.70
2017-09-05T19:37:55.713Z,3.87
2017-09-05T19:40:29.818Z,3.33
2017-09-05T19:43:04.045Z,4.87
2017-09-05T19:45:37.651Z,4.60
2017-09-05T19:48:11.453Z,5.37
2017-09-05T19:50:45.047Z,5.00
2017-09-05T19:53:18.643Z,4.20
2017-09-05T19:55:52.447Z,3.70
2017-09-05T19:58:26.670Z,3.30
2017-09-05T20:01:00.263Z,3.20
2017-09-05T20:03:33.757Z,3.93
2017-09-05T20:06:07.197Z,3.43
2017-09-05T20:08:40.658Z,3.53
2017-09-05T20:11:14.257Z,3.00
2017-09-05T20:13:47.757Z,3.20
2017-09-05T20:16:21.358Z,3.07
2017-09-05T20:18:54.897Z,3.13
2017-09-05T20:21:28.767Z,3.00
2017-09-05T20:24:02.481Z,3.13
2017-09-05T20:26:36.478Z,3.70
2017-09-05T20:29:10.607Z,3.30
2017-09-05T20:31:44.462Z,3.40
2017-09-05T20:34:18.173Z,3.80
2017-09-05T20:36:51.774Z,3.10
2017-09-05T20:39:25.299Z,3.30
2017-09-05T20:41:58.794Z,2.77
2017-09-05T20:44:32.610Z,3.10
2017-09-05T20:47:06.405Z,3.07
2017-09-05T20:49:40.024Z,3.03
2017-09-05T20:52:13.625Z,3.30
2017-09-05T20:54:47.158Z,3.27
2017-09-05T20:57:20.710Z,3.40
2017-09-05T20:59:54.151Z,3.50
2017-09-05T21:02:27.906Z,2.97
2017-09-05T21:05:01.406Z,3.33
2017-09-05T21:07:35.011Z,3.20
2017-09-05T21:10:08.606Z,3.57
2017-09-05T21:12:42.214Z,3.00
2017-09-05T21:15:15.786Z,3.50
2017-09-05T21:17:49.940Z,3.30
2017-09-05T21:20:23.525Z,3.73
2017-09-05T21:22:57.225Z,2.97
2017-09-05T21:25:30.953Z,5.70
2017-09-05T21:28:04.680Z,2.90
2017-09-05T21:30:38.438Z,2.93
2017-09-05T21:33:12.701Z,3.17
2017-09-05T21:35:46.322Z,2.83
2017-09-05T21:38:20.030Z,2.77
2017-09-05T21:40:54.478Z,2.50
2017-09-05T21:43:28.081Z,2.47
2017-09-05T21:46:01.601Z,5.80
2017-09-05T21:48:35.893Z,2.60
2017-09-05T21:51:09.590Z,2.87
2017-09-05T21:53:43.199Z,3.40
2017-09-05T21:56:17.426Z,3.00
2017-09-05T21:58:51.113Z,2.30
2017-09-05T22:01:24.722Z,2.83
2017-09-05T22:03:58.493Z,2.20
2017-09-05T22:06:32.073Z,2.40
2017-09-05T22:09:05.826Z,2.30
2017-09-05T22:11:39.946Z,2.47
2017-09-05T22:14:19.343Z,2.57
2017-09-05T22:16:53.079Z,2.53
2017-09-05T22:19:32.495Z,2.40
2017-09-05T22:22:06.121Z,2.50
2017-09-05T22:24:45.245Z,3.40
2017-09-05T22:30:19.306Z,1.87
2017-09-05T22:32:52.998Z,2.20
2017-09-05T22:35:26.658Z,2.63
2017-09-05T22:38:00.157Z,2.37
2017-09-05T22:40:33.800Z,2.00
2017-09-05T22:43:07.487Z,2.30
2017-09-05T22:45:41.122Z,2.27
2017-09-05T22:48:14.698Z,1.93
2017-09-05T22:50:48.393Z,1.83
2017-09-05T22:53:21.990Z,2.00
2017-09-05T22:55:55.798Z,2.13
2017-09-05T22:58:29.406Z,1.80
2017-09-05T23:01:03.686Z,2.30
2017-09-05T23:03:37.517Z,1.70
2017-09-05T23:06:11.171Z,1.93
2017-09-05T23:08:44.930Z,2.20
2017-09-05T23:11:18.529Z,1.83
2017-09-05T23:13:52.238Z,2.00
2017-09-05T23:16:25.834Z,1.80
2017-09-05T23:18:59.527Z,1.50
2017-09-05T23:21:33.342Z,1.53
2017-09-05T23:24:06.933Z,1.90
2017-09-05T23:26:40.442Z,1.90
2017-09-05T23:29:14.247Z,2.23
2017-09-05T23:31:47.833Z,1.53
2017-09-05T23:34:21.649Z,1.60
2017-09-05T23:36:55.256Z,2.00
2017-09-05T23:39:29.893Z,2.60
2017-09-05T23:42:03.578Z,1.70
2017-09-05T23:44:37.145Z,1.90
2017-09-05T23:47:10.702Z,1.77
2017-09-05T23:49:44.994Z,1.80
2017-09-05T23:52:18.612Z,2.00
2017-09-05T23:54:52.298Z,2.43
2017-09-05T23:57:25.792Z,2.20
2017-09-05T23:59:59.398Z,1.60
